createdAt,value
2023-03-29T00:00:38.979Z,81.66
2023-03-29T00:03:07.830Z,81.53
2023-03-29T00:05:39.261Z,81.22
2023-03-29T00:08:08.618Z,81.10
2023-03-29T00:10:37.749Z,81.17
2023-03-29T00:13:06.973Z,80.89
2023-03-29T00:15:35.719Z,81.27
2023-03-29T00:18:06.485Z,81.40
2023-03-29T00:20:36.471Z,81.33
2023-03-29T00:23:07.482Z,81.75
2023-03-29T00:25:36.266Z,81.89
2023-03-29T00:28:04.633Z,81.75
2023-03-29T00:30:33.589Z,82.02
2023-03-29T00:33:05.292Z,82.10
2023-03-29T00:35:34.527Z,81.77
2023-03-29T00:38:04.385Z,81.51
2023-03-29T00:40:33.420Z,81.46
2023-03-29T00:43:01.727Z,81.69
2023-03-29T00:45:35.972Z,81.54
2023-03-29T00:48:13.362Z,81.81
2023-03-29T00:50:47.376Z,81.17
2023-03-29T00:53:37.630Z,80.86
2023-03-29T00:58:04.477Z,81.08
2023-03-29T01:00:37.609Z,81.59
2023-03-29T01:03:08.462Z,81.46
2023-03-29T01:05:38.589Z,81.37
2023-03-29T01:08:27.090Z,81.13
2023-03-29T01:11:07.181Z,81.05
2023-03-29T01:13:40.353Z,81.47
2023-03-29T01:16:08.489Z,80.83
2023-03-29T01:18:35.497Z,81.06
2023-03-29T01:21:14.344Z,81.51
2023-03-29T01:23:50.809Z,81.04
2023-03-29T01:26:29.089Z,80.51
2023-03-29T01:29:02.972Z,80.56
2023-03-29T01:31:32.031Z,80.44
2023-03-29T01:34:09.483Z,80.40
2023-03-29T01:36:48.880Z,80.53
2023-03-29T01:39:15.652Z,80.46
2023-03-29T01:41:56.582Z,80.43
2023-03-29T01:44:30.151Z,80.47
2023-03-29T01:47:23.120Z,80.51
2023-03-29T01:49:57.893Z,80.66
2023-03-29T01:52:28.276Z,80.79
2023-03-29T01:55:02.354Z,80.68
2023-03-29T01:57:30.680Z,81.02
2023-03-29T01:59:57.353Z,81.18
2023-03-29T02:02:24.527Z,80.65
2023-03-29T02:04:53.466Z,80.93
2023-03-29T02:07:24.116Z,81.27
2023-03-29T02:09:51.973Z,81.17
2023-03-29T02:12:18.658Z,81.41
2023-03-29T02:14:46.254Z,81.40
2023-03-29T02:17:19.985Z,80.57
2023-03-29T02:19:50.509Z,80.84
2023-03-29T02:22:25.396Z,81.32
2023-03-29T02:24:54.062Z,81.24
2023-03-29T02:27:21.264Z,81.48
2023-03-29T02:29:47.921Z,81.46
2023-03-29T02:32:35.780Z,81.19
2023-03-29T02:35:21.769Z,81.22
2023-03-29T02:37:49.084Z,80.23
2023-03-29T02:40:16.915Z,80.87
2023-03-29T02:42:44.274Z,80.77
2023-03-29T02:45:18.585Z,80.51
2023-03-29T02:47:54.346Z,80.67
2023-03-29T02:50:23.409Z,81.32
2023-03-29T02:52:53.460Z,80.94
2023-03-29T02:55:21.872Z,81.07
2023-03-29T02:57:54.343Z,80.66
2023-03-29T03:00:22.696Z,80.18
2023-03-29T03:02:51.543Z,80.20
2023-03-29T03:05:26.872Z,80.62
2023-03-29T03:07:53.665Z,80.46
2023-03-29T03:10:20.432Z,80.25
2023-03-29T03:12:47.180Z,80.29
2023-03-29T03:15:14.892Z,80.48
2023-03-29T03:17:42.053Z,80.19
2023-03-29T03:20:12.401Z,80.29
2023-03-29T03:22:49.127Z,80.72
2023-03-29T03:25:20.776Z,80.59
2023-03-29T03:27:48.422Z,80.16
2023-03-29T03:30:15.894Z,79.28
2023-03-29T03:33:06.268Z,79.91
2023-03-29T03:35:48.591Z,79.83
2023-03-29T03:38:19.478Z,79.81
2023-03-29T03:40:54.284Z,79.75
2023-03-29T03:43:21.340Z,79.96
2023-03-29T03:45:48.590Z,79.85
2023-03-29T03:48:17.787Z,79.68
2023-03-29T03:50:52.722Z,79.70
2023-03-29T03:53:20.775Z,79.39
2023-03-29T03:56:19.940Z,79.50
2023-03-29T03:59:06.622Z,79.13
2023-03-29T04:01:44.781Z,79.42
2023-03-29T04:04:14.317Z,79.18
2023-03-29T04:06:49.876Z,78.97
2023-03-29T04:09:48.361Z,79.68
2023-03-29T04:12:23.985Z,79.61
2023-03-29T04:14:50.797Z,79.56
2023-03-29T04:17:22.862Z,79.78
2023-03-29T04:19:55.310Z,79.43
2023-03-29T04:22:24.649Z,79.11
2023-03-29T04:24:51.583Z,78.93
2023-03-29T04:27:53.630Z,79.44
2023-03-29T04:30:40.020Z,79.89
2023-03-29T04:33:13.307Z,79.40
2023-03-29T04:35:42.947Z,79.31
2023-03-29T04:38:13.469Z,79.39
2023-03-29T04:40:41.499Z,79.20
2023-03-29T04:43:13.899Z,79.02
2023-03-29T04:45:49.603Z,78.38
2023-03-29T04:48:33.697Z,78.34
2023-03-29T04:51:01.903Z,78.61
2023-03-29T04:53:30.703Z,78.63
2023-03-29T04:55:59.679Z,78.73
2023-03-29T04:58:45.269Z,79.43
2023-03-29T05:01:12.112Z,79.45
2023-03-29T05:03:45.901Z,79.19
2023-03-29T05:06:23.978Z,79.31
2023-03-29T05:08:52.815Z,79.18
2023-03-29T05:11:31.147Z,79.08
2023-03-29T05:14:01.769Z,78.90
2023-03-29T05:16:29.547Z,78.55
2023-03-29T05:18:56.866Z,78.92
2023-03-29T05:21:30.128Z,79.28
2023-03-29T05:23:58.753Z,79.29
2023-03-29T05:27:01.726Z,79.18
2023-03-29T05:29:32.363Z,79.56
2023-03-29T05:32:20.096Z,79.53
2023-03-29T05:34:47.316Z,79.45
2023-03-29T05:37:15.141Z,79.55
2023-03-29T05:40:09.472Z,79.39
2023-03-29T05:42:51.071Z,79.05
2023-03-29T05:45:18.185Z,79.28
2023-03-29T05:47:46.194Z,78.81
2023-03-29T05:50:13.107Z,78.43
2023-03-29T05:52:40.484Z,78.65
2023-03-29T05:55:08.358Z,78.55
2023-03-29T05:57:36.984Z,79.11
2023-03-29T06:00:25.011Z,79.25
2023-03-29T06:03:01.354Z,78.74
2023-03-29T06:05:48.436Z,78.11
2023-03-29T06:08:24.116Z,78.12
2023-03-29T06:11:06.597Z,78.49
2023-03-29T06:13:53.961Z,78.81
2023-03-29T06:16:24.246Z,78.89
2023-03-29T06:18:54.720Z,79.04
2023-03-29T06:21:22.702Z,79.38
2023-03-29T06:23:51.835Z,79.50
2023-03-29T06:26:19.759Z,78.97
2023-03-29T06:28:50.590Z,78.62
2023-03-29T06:31:21.955Z,78.51
2023-03-29T06:33:50.900Z,79.03
2023-03-29T06:36:37.284Z,79.28
2023-03-29T06:39:04.763Z,78.65
2023-03-29T06:42:20.149Z,78.78
2023-03-29T06:45:08.149Z,79.13
2023-03-29T06:47:37.521Z,79.35
2023-03-29T06:50:05.034Z,78.95
2023-03-29T06:52:41.256Z,78.67
2023-03-29T06:55:08.740Z,78.86
2023-03-29T06:57:39.369Z,78.71
2023-03-29T07:00:27.112Z,78.59
2023-03-29T07:03:28.794Z,78.32
2023-03-29T07:06:02.997Z,78.39
2023-03-29T07:08:31.326Z,78.08
2023-03-29T07:11:06.613Z,78.40
2023-03-29T07:14:00.128Z,78.20
2023-03-29T07:16:27.735Z,78.34
2023-03-29T07:19:08.969Z,78.24
2023-03-29T07:21:56.697Z,78.39
2023-03-29T07:24:34.053Z,78.51
2023-03-29T07:27:04.538Z,78.29
2023-03-29T07:29:32.207Z,78.06
2023-03-29T07:31:59.580Z,78.41
2023-03-29T07:34:51.081Z,78.35
2023-03-29T07:37:30.232Z,77.82
2023-03-29T07:39:57.232Z,78.04
2023-03-29T07:42:43.845Z,77.76
2023-03-29T07:45:13.373Z,77.55
2023-03-29T07:47:54.234Z,77.73
2023-03-29T07:50:21.416Z,77.54
2023-03-29T07:52:48.583Z,77.14
2023-03-29T07:55:16.842Z,77.40
2023-03-29T07:58:06.913Z,77.45
2023-03-29T08:00:34.910Z,77.47
2023-03-29T08:03:24.035Z,77.33
2023-03-29T08:05:51.371Z,76.90
2023-03-29T08:08:19.212Z,77.45
2023-03-29T08:10:52.551Z,77.68
2023-03-29T08:13:33.296Z,77.83
2023-03-29T08:16:18.701Z,77.56
2023-03-29T08:18:52.041Z,77.78
2023-03-29T08:21:25.895Z,77.69
2023-03-29T08:23:53.617Z,77.44
2023-03-29T08:26:25.380Z,77.82
2023-03-29T08:28:53.010Z,77.98
2023-03-29T08:31:20.385Z,77.38
2023-03-29T08:33:51.118Z,77.09
2023-03-29T08:36:29.458Z,76.97
2023-03-29T08:38:58.640Z,77.58
2023-03-29T08:41:58.500Z,77.49
2023-03-29T08:44:34.094Z,77.47
2023-03-29T08:47:25.872Z,77.37
2023-03-29T08:49:53.870Z,77.55
2023-03-29T08:52:30.577Z,77.74
2023-03-29T08:54:58.836Z,77.31
2023-03-29T08:57:47.131Z,77.65
2023-03-29T09:00:18.172Z,77.79
2023-03-29T09:02:47.341Z,77.73
2023-03-29T09:05:37.267Z,78.33
2023-03-29T09:08:18.791Z,78.41
2023-03-29T09:11:15.876Z,78.06
2023-03-29T09:13:48.695Z,78.33
2023-03-29T09:16:21.107Z,78.08
2023-03-29T09:18:55.858Z,78.15
2023-03-29T09:21:30.627Z,78.09
2023-03-29T09:24:01.038Z,78.16
2023-03-29T09:26:41.522Z,77.69
2023-03-29T09:29:55.088Z,77.89
2023-03-29T09:32:42.278Z,77.89
2023-03-29T09:35:18.052Z,77.29
2023-03-29T09:37:45.866Z,77.02
2023-03-29T09:40:22.386Z,76.88
2023-03-29T09:43:12.219Z,77.32
2023-03-29T09:45:39.476Z,77.60
2023-03-29T09:48:17.907Z,77.67
2023-03-29T09:50:56.015Z,77.84
2023-03-29T09:53:40.698Z,77.80
2023-03-29T09:56:18.449Z,77.10
2023-03-29T09:58:58.732Z,77.51
2023-03-29T10:01:26.110Z,77.42
2023-03-29T10:03:56.101Z,77.68
2023-03-29T10:06:23.641Z,77.27
2023-03-29T10:08:56.984Z,77.25
2023-03-29T10:11:34.106Z,77.24
2023-03-29T10:14:24.657Z,76.71
2023-03-29T10:16:56.574Z,76.41
2023-03-29T10:19:29.908Z,76.90
2023-03-29T10:22:01.380Z,76.62
2023-03-29T10:24:28.217Z,76.50
2023-03-29T10:27:03.866Z,76.81
2023-03-29T10:29:37.649Z,76.89
2023-03-29T10:32:16.688Z,76.38
2023-03-29T10:34:45.823Z,75.98
2023-03-29T10:37:15.950Z,76.39
2023-03-29T10:39:42.839Z,76.19
2023-03-29T10:42:12.774Z,75.71
2023-03-29T10:44:40.513Z,75.84
2023-03-29T10:47:16.242Z,75.86
2023-03-29T10:49:45.975Z,75.81
2023-03-29T10:52:13.605Z,75.99
2023-03-29T10:54:40.888Z,76.26
2023-03-29T10:57:08.789Z,76.38
2023-03-29T11:00:01.312Z,75.96
2023-03-29T11:02:46.791Z,75.83
2023-03-29T11:05:26.019Z,76.02
2023-03-29T11:08:22.994Z,76.41
2023-03-29T11:10:56.222Z,75.87
2023-03-29T11:13:31.017Z,75.60
2023-03-29T11:16:04.240Z,76.30
2023-03-29T11:18:45.069Z,76.13
2023-03-29T11:21:41.909Z,75.56
2023-03-29T11:24:39.085Z,75.69
2023-03-29T11:27:36.426Z,75.93
2023-03-29T11:30:35.520Z,75.67
2023-03-29T11:33:06.634Z,75.27
2023-03-29T11:35:43.335Z,75.02
2023-03-29T11:38:28.763Z,74.48
2023-03-29T11:40:58.324Z,73.83
2023-03-29T11:43:38.098Z,73.91
2023-03-29T11:46:21.569Z,74.60
2023-03-29T11:48:52.297Z,74.45
2023-03-29T11:51:22.001Z,74.64
2023-03-29T11:53:55.653Z,74.58
2023-03-29T11:56:32.006Z,74.23
2023-03-29T11:59:02.426Z,73.87
2023-03-29T12:01:41.817Z,74.13
2023-03-29T12:04:30.229Z,74.17
2023-03-29T12:07:26.075Z,73.42
2023-03-29T12:10:02.460Z,73.08
2023-03-29T12:12:50.665Z,73.39
2023-03-29T12:15:21.636Z,73.49
2023-03-29T12:17:57.214Z,73.10
2023-03-29T12:20:27.677Z,72.93
2023-03-29T12:22:57.493Z,73.23
2023-03-29T12:25:30.924Z,73.03
2023-03-29T12:28:12.091Z,72.70
2023-03-29T12:30:49.310Z,73.27
2023-03-29T12:33:26.924Z,73.06
2023-03-29T12:36:45.393Z,73.37
2023-03-29T12:39:35.574Z,73.45
2023-03-29T12:42:34.367Z,73.48
2023-03-29T12:45:40.554Z,73.25
2023-03-29T12:48:19.881Z,73.55
2023-03-29T12:51:00.721Z,73.90
2023-03-29T12:53:42.844Z,73.90
2023-03-29T12:56:18.589Z,73.66
2023-03-29T12:59:07.001Z,73.14
2023-03-29T13:01:38.255Z,72.51
2023-03-29T13:04:16.977Z,72.23
2023-03-29T13:06:48.203Z,73.63
2023-03-29T13:09:29.481Z,73.91
2023-03-29T13:12:23.538Z,73.02
2023-03-29T13:15:38.327Z,73.15
2023-03-29T13:18:17.831Z,72.72
2023-03-29T13:20:47.273Z,72.80
2023-03-29T13:23:44.765Z,71.98
2023-03-29T13:26:25.513Z,72.49
2023-03-29T13:29:32.247Z,72.42
2023-03-29T13:32:03.355Z,72.44
2023-03-29T13:34:40.140Z,72.23
2023-03-29T13:37:12.109Z,72.33
2023-03-29T13:39:48.440Z,72.54
2023-03-29T13:42:32.854Z,72.59
2023-03-29T13:45:13.313Z,72.72
2023-03-29T13:47:54.520Z,72.67
2023-03-29T13:50:39.126Z,72.84
2023-03-29T13:53:26.085Z,72.64
2023-03-29T13:55:54.731Z,72.28
2023-03-29T13:58:42.246Z,71.73
2023-03-29T14:01:32.750Z,72.11
2023-03-29T14:04:01.795Z,71.71
2023-03-29T14:06:32.642Z,71.63
2023-03-29T14:09:05.509Z,72.10
2023-03-29T14:11:35.813Z,71.93
2023-03-29T14:14:08.473Z,71.68
2023-03-29T14:16:39.194Z,71.94
2023-03-29T14:19:18.409Z,71.64
2023-03-29T14:21:47.028Z,71.65
2023-03-29T14:24:22.027Z,72.21
2023-03-29T14:26:51.371Z,72.36
2023-03-29T14:29:31.553Z,72.26
2023-03-29T14:32:19.667Z,71.80
2023-03-29T14:34:48.415Z,71.63
2023-03-29T14:37:27.284Z,71.93
2023-03-29T14:39:57.366Z,72.05
2023-03-29T14:42:26.950Z,71.76
2023-03-29T14:45:02.045Z,72.19
2023-03-29T14:47:31.820Z,72.52
2023-03-29T14:50:03.975Z,72.62
2023-03-29T14:52:33.204Z,72.74
2023-03-29T14:55:02.164Z,72.81
2023-03-29T14:57:34.604Z,72.87
2023-03-29T15:00:40.039Z,72.75
2023-03-29T15:03:14.562Z,72.86
2023-03-29T15:05:48.274Z,72.60
2023-03-29T15:08:23.966Z,72.63
2023-03-29T15:10:53.786Z,72.96
2023-03-29T15:13:24.730Z,73.24
2023-03-29T15:15:54.332Z,73.17
2023-03-29T15:18:44.150Z,73.19
2023-03-29T15:21:14.198Z,72.92
2023-03-29T15:23:53.883Z,73.07
2023-03-29T15:26:32.957Z,73.45
2023-03-29T15:29:23.619Z,73.50
2023-03-29T15:31:56.962Z,73.60
2023-03-29T15:34:30.585Z,74.00
2023-03-29T15:36:59.482Z,73.99
2023-03-29T15:39:28.819Z,73.48
2023-03-29T15:41:57.221Z,73.38
2023-03-29T15:44:30.240Z,73.16
2023-03-29T15:46:59.977Z,73.14
2023-03-29T15:49:28.220Z,73.46
2023-03-29T15:51:59.635Z,73.44
2023-03-29T15:54:29.217Z,73.52
2023-03-29T15:57:03.593Z,73.53
2023-03-29T15:59:33.721Z,73.19
2023-03-29T16:02:01.965Z,73.15
2023-03-29T16:04:30.558Z,73.08
2023-03-29T16:06:58.950Z,73.23
2023-03-29T16:09:27.628Z,72.99
2023-03-29T16:12:03.625Z,73.10
2023-03-29T16:14:34.062Z,73.49
2023-03-29T16:17:03.417Z,73.77
2023-03-29T16:19:32.221Z,73.76
2023-03-29T16:22:02.278Z,73.76
2023-03-29T16:24:31.913Z,73.76
2023-03-29T16:27:02.795Z,73.58
2023-03-29T16:29:31.347Z,74.08
2023-03-29T16:32:00.014Z,74.40
2023-03-29T16:34:28.425Z,74.22
2023-03-29T16:36:57.157Z,74.12
2023-03-29T16:39:29.325Z,74.19
2023-03-29T16:41:57.807Z,74.16
2023-03-29T16:44:27.893Z,73.86
2023-03-29T16:46:58.575Z,74.31
2023-03-29T16:49:27.253Z,74.34
2023-03-29T16:52:01.537Z,74.41
2023-03-29T16:54:32.810Z,74.38
2023-03-29T16:57:01.049Z,74.40
2023-03-29T16:59:29.560Z,74.36
2023-03-29T17:01:57.745Z,74.69
2023-03-29T17:04:26.418Z,74.76
2023-03-29T17:06:55.398Z,74.94
2023-03-29T17:09:23.568Z,74.81
2023-03-29T17:11:51.658Z,74.90
2023-03-29T17:14:19.886Z,74.60
2023-03-29T17:16:48.240Z,74.59
2023-03-29T17:19:16.344Z,74.61
2023-03-29T17:21:44.520Z,74.83
2023-03-29T17:24:14.545Z,75.00
2023-03-29T17:26:45.808Z,74.90
2023-03-29T17:29:14.144Z,75.02
2023-03-29T17:31:47.948Z,74.78
2023-03-29T17:34:18.103Z,74.87
2023-03-29T17:36:46.196Z,74.77
2023-03-29T17:39:18.864Z,75.00
2023-03-29T17:41:47.545Z,74.73
2023-03-29T17:44:18.430Z,75.09
2023-03-29T17:46:47.177Z,75.23
2023-03-29T17:49:16.888Z,75.34
2023-03-29T17:51:46.267Z,75.17
2023-03-29T17:54:14.326Z,74.85
2023-03-29T17:56:42.437Z,74.98
2023-03-29T17:59:10.620Z,75.23
2023-03-29T18:01:39.429Z,75.32
2023-03-29T18:04:08.102Z,75.11
2023-03-29T18:06:36.441Z,75.18
2023-03-29T18:09:13.160Z,74.67
2023-03-29T18:11:42.884Z,74.63
2023-03-29T18:14:11.024Z,74.91
2023-03-29T18:16:42.211Z,74.88
2023-03-29T18:19:11.370Z,75.13
2023-03-29T18:21:39.502Z,74.99
2023-03-29T18:24:08.342Z,74.96
2023-03-29T18:26:36.529Z,75.41
2023-03-29T18:29:04.705Z,75.49
2023-03-29T18:31:34.191Z,75.42
2023-03-29T18:34:02.795Z,75.40
2023-03-29T18:36:32.587Z,75.22
2023-03-29T18:39:05.850Z,75.14
2023-03-29T18:41:39.887Z,75.09
2023-03-29T18:44:08.666Z,74.92
2023-03-29T18:46:38.965Z,74.94
2023-03-29T18:49:08.894Z,74.93
2023-03-29T18:51:36.913Z,74.57
2023-03-29T18:54:06.622Z,74.50
2023-03-29T18:56:35.970Z,74.77
2023-03-29T18:59:07.670Z,74.97
2023-03-29T19:01:37.608Z,75.00
2023-03-29T19:04:06.344Z,75.02
2023-03-29T19:06:35.974Z,74.88
2023-03-29T19:09:05.840Z,75.02
2023-03-29T19:11:36.092Z,75.16
2023-03-29T19:14:08.448Z,75.10
2023-03-29T19:16:38.920Z,75.08
2023-03-29T19:19:09.307Z,74.93
2023-03-29T19:21:41.839Z,75.14
2023-03-29T19:24:10.009Z,75.33
2023-03-29T19:26:38.346Z,74.94
2023-03-29T19:29:06.783Z,74.90
2023-03-29T19:31:37.920Z,74.64
2023-03-29T19:34:09.683Z,74.49
2023-03-29T19:36:38.024Z,74.82
2023-03-29T19:39:06.300Z,74.99
2023-03-29T19:41:35.422Z,74.71
2023-03-29T19:44:05.407Z,74.69
2023-03-29T19:46:41.461Z,74.45
2023-03-29T19:49:13.939Z,74.33
2023-03-29T19:51:43.825Z,74.00
2023-03-29T19:54:17.486Z,74.12
2023-03-29T19:56:45.518Z,74.24
2023-03-29T19:59:17.776Z,73.98
2023-03-29T20:01:51.949Z,74.09
2023-03-29T20:04:21.059Z,74.21
2023-03-29T20:06:49.516Z,74.42
2023-03-29T20:09:17.734Z,74.36
2023-03-29T20:11:48.518Z,74.63
2023-03-29T20:14:16.911Z,74.52
2023-03-29T20:16:45.954Z,74.30
2023-03-29T20:19:14.285Z,74.14
2023-03-29T20:21:43.227Z,74.21
2023-03-29T20:24:11.702Z,74.17
2023-03-29T20:26:39.919Z,74.38
2023-03-29T20:29:11.507Z,74.45
2023-03-29T20:31:39.917Z,74.26
2023-03-29T20:34:08.541Z,74.11
2023-03-29T20:36:37.346Z,73.90
2023-03-29T20:39:05.808Z,73.87
2023-03-29T20:41:38.377Z,73.88
2023-03-29T20:44:06.433Z,74.10
2023-03-29T20:46:38.094Z,73.79
2023-03-29T20:49:09.911Z,73.53
2023-03-29T20:51:39.816Z,73.37
2023-03-29T20:54:10.893Z,73.68
2023-03-29T20:56:39.899Z,73.77
2023-03-29T20:59:11.159Z,73.94
2023-03-29T21:01:42.978Z,73.71
2023-03-29T21:04:16.279Z,73.37
2023-03-29T21:06:49.740Z,73.38
2023-03-29T21:09:21.369Z,73.53
2023-03-29T21:11:52.983Z,73.75
2023-03-29T21:14:22.950Z,73.76
2023-03-29T21:16:52.536Z,73.85
2023-03-29T21:19:21.486Z,73.83
2023-03-29T21:21:52.425Z,73.63
2023-03-29T21:24:20.691Z,73.46
2023-03-29T21:26:49.341Z,73.45
2023-03-29T21:29:17.566Z,73.48
2023-03-29T21:31:46.181Z,73.62
2023-03-29T21:34:15.229Z,73.69
2023-03-29T21:36:43.579Z,73.69
2023-03-29T21:39:11.544Z,73.40
2023-03-29T21:41:39.589Z,73.29
2023-03-29T21:44:10.493Z,73.71
2023-03-29T21:46:39.393Z,73.68
2023-03-29T21:49:08.470Z,73.58
2023-03-29T21:51:37.149Z,73.85
2023-03-29T21:54:05.438Z,73.87
2023-03-29T21:56:34.228Z,73.69
2023-03-29T21:59:02.175Z,73.86
2023-03-29T22:01:32.293Z,73.88
2023-03-29T22:04:01.837Z,73.94
2023-03-29T22:06:30.147Z,73.95
2023-03-29T22:09:00.819Z,74.13
2023-03-29T22:11:29.675Z,73.87
2023-03-29T22:13:58.574Z,73.58
2023-03-29T22:16:28.470Z,73.69
2023-03-29T22:18:56.898Z,73.67
2023-03-29T22:21:31.170Z,73.99
2023-03-29T22:24:00.728Z,74.00
2023-03-29T22:26:30.564Z,74.05
2023-03-29T22:29:02.181Z,74.18
2023-03-29T22:31:30.798Z,74.08
2023-03-29T22:33:59.922Z,74.28
2023-03-29T22:36:29.291Z,74.71
2023-03-29T22:38:57.570Z,74.75
2023-03-29T22:41:27.700Z,74.68
2023-03-29T22:43:57.257Z,74.78
2023-03-29T22:46:26.346Z,74.81
2023-03-29T22:48:54.946Z,74.65
2023-03-29T22:51:24.010Z,74.66
2023-03-29T22:53:52.758Z,74.76
2023-03-29T22:56:22.110Z,74.93
2023-03-29T22:58:50.608Z,74.94
2023-03-29T23:01:18.889Z,74.89
2023-03-29T23:03:46.972Z,74.93
2023-03-29T23:06:15.548Z,74.85
2023-03-29T23:08:43.608Z,74.98
2023-03-29T23:11:11.599Z,75.02
2023-03-29T23:13:40.877Z,75.23
2023-03-29T23:16:09.181Z,75.14
2023-03-29T23:18:39.180Z,75.23
2023-03-29T23:21:09.184Z,75.36
2023-03-29T23:23:37.612Z,75.28
2023-03-29T23:26:08.559Z,75.18
2023-03-29T23:28:36.564Z,75.30
2023-03-29T23:31:09.485Z,75.28
2023-03-29T23:33:41.286Z,75.34
2023-03-29T23:36:11.372Z,75.34
2023-03-29T23:38:39.784Z,75.56
2023-03-29T23:41:10.869Z,75.66
2023-03-29T23:43:43.527Z,75.53
2023-03-29T23:46:15.405Z,75.75
2023-03-29T23:48:45.943Z,75.56
2023-03-29T23:51:14.407Z,75.45
2023-03-29T23:53:42.478Z,75.38
2023-03-29T23:56:11.912Z,75.36
2023-03-29T23:58:41.309Z,75.29
